createdAt,value
2023-02-20T00:00:58.516Z,1.03
2023-02-20T00:04:01.530Z,1.37
2023-02-20T00:07:04.450Z,1.30
2023-02-20T00:10:08.585Z,1.20
2023-02-20T00:13:11.440Z,1.40
2023-02-20T00:16:16.191Z,1.60
2023-02-20T00:19:19.062Z,1.67
2023-02-20T00:22:22.721Z,1.00
2023-02-20T00:25:25.589Z,1.33
2023-02-20T00:28:29.807Z,1.50
2023-02-20T00:31:34.050Z,1.27
2023-02-20T00:34:36.923Z,1.00
2023-02-20T00:37:40.097Z,0.90
2023-02-20T00:40:43.434Z,1.00
2023-02-20T00:43:46.280Z,1.50
2023-02-20T00:46:50.493Z,1.33
2023-02-20T00:49:53.450Z,1.33
2023-02-20T00:52:56.282Z,0.90
2023-02-20T00:55:59.134Z,0.90
2023-02-20T00:59:01.963Z,1.03
2023-02-20T01:02:06.174Z,1.17
2023-02-20T01:05:09.255Z,1.10
2023-02-20T01:08:12.123Z,1.33
2023-02-20T01:11:15.148Z,1.47
2023-02-20T01:14:18.004Z,1.40
2023-02-20T01:17:22.558Z,1.43
2023-02-20T01:20:25.562Z,1.37
2023-02-20T01:23:28.391Z,1.07
2023-02-20T01:26:31.329Z,1.37
2023-02-20T01:29:34.200Z,1.27
2023-02-20T01:32:38.398Z,1.17
2023-02-20T01:35:41.277Z,1.17
2023-02-20T01:38:44.227Z,1.30
2023-02-20T01:41:48.955Z,0.80
2023-02-20T01:44:52.156Z,1.20
2023-02-20T01:47:58.257Z,1.37
2023-02-20T01:51:01.963Z,1.37
2023-02-20T01:54:08.018Z,1.60
2023-02-20T01:57:17.531Z,1.57
2023-02-20T02:00:24.348Z,1.57
2023-02-20T02:03:32.221Z,1.80
2023-02-20T02:06:39.670Z,1.40
2023-02-20T02:09:48.695Z,1.47
2023-02-20T02:12:54.745Z,1.20
2023-02-20T02:16:08.069Z,1.20
2023-02-20T02:19:28.773Z,1.40
2023-02-20T02:22:55.949Z,1.40
2023-02-20T02:26:08.267Z,1.30
2023-02-20T02:29:56.065Z,1.77
2023-02-20T02:33:24.632Z,1.37
2023-02-20T02:36:40.312Z,1.67
2023-02-20T02:39:47.443Z,1.30
2023-02-20T02:42:56.306Z,2.13
2023-02-20T02:46:07.452Z,1.50
2023-02-20T02:49:15.919Z,1.53
2023-02-20T02:52:37.191Z,2.00
2023-02-20T02:55:40.033Z,1.80
2023-02-20T02:58:43.471Z,2.07
2023-02-20T03:01:55.698Z,2.63
2023-02-20T03:05:00.336Z,1.73
2023-02-20T03:08:05.622Z,1.90
2023-02-20T03:11:13.529Z,2.10
2023-02-20T03:14:38.210Z,1.40
2023-02-20T03:17:46.779Z,2.20
2023-02-20T03:20:53.403Z,2.13
2023-02-20T03:24:00.916Z,1.90
2023-02-20T03:27:05.574Z,1.30
2023-02-20T03:30:13.936Z,1.50
2023-02-20T03:33:38.694Z,2.00
2023-02-20T03:37:06.599Z,1.70
2023-02-20T03:40:31.129Z,1.63
2023-02-20T03:43:36.918Z,1.50
2023-02-20T03:46:41.299Z,2.10
2023-02-20T03:49:45.317Z,1.77
2023-02-20T03:52:48.332Z,2.00
2023-02-20T03:55:55.888Z,1.77
2023-02-20T03:59:02.983Z,1.63
2023-02-20T04:02:10.447Z,2.10
2023-02-20T04:05:18.105Z,2.50
2023-02-20T04:08:24.965Z,2.20
2023-02-20T04:11:33.737Z,1.40
2023-02-20T04:14:37.816Z,1.90
2023-02-20T04:17:47.132Z,1.93
2023-02-20T04:20:54.909Z,2.10
2023-02-20T04:24:05.931Z,1.87
2023-02-20T04:27:10.974Z,2.50
2023-02-20T04:30:14.557Z,2.83
2023-02-20T04:33:19.310Z,2.43
2023-02-20T04:36:23.183Z,1.80
2023-02-20T04:39:26.045Z,1.70
2023-02-20T04:42:30.222Z,2.30
2023-02-20T04:45:33.090Z,2.03
2023-02-20T04:48:35.958Z,1.97
2023-02-20T04:51:38.798Z,2.00
2023-02-20T04:54:41.668Z,2.63
2023-02-20T04:57:45.876Z,2.27
2023-02-20T05:00:49.009Z,1.77
2023-02-20T05:03:51.865Z,1.90
2023-02-20T05:06:56.313Z,2.33
2023-02-20T05:09:59.165Z,1.93
2023-02-20T05:13:03.684Z,1.93
2023-02-20T05:16:08.365Z,2.27
2023-02-20T05:19:11.276Z,1.70
2023-02-20T05:22:19.157Z,3.57
2023-02-20T05:25:22.040Z,6.23
2023-02-20T05:28:26.248Z,3.97
2023-02-20T05:31:29.258Z,2.20
2023-02-20T05:34:32.171Z,1.80
2023-02-20T05:37:35.007Z,2.70
2023-02-20T05:40:37.854Z,2.90
2023-02-20T05:43:42.152Z,2.20
2023-02-20T05:46:45.067Z,2.30
2023-02-20T05:49:48.534Z,2.23
2023-02-20T05:52:51.401Z,1.80
2023-02-20T05:55:54.256Z,2.17
2023-02-20T05:58:58.535Z,2.27
2023-02-20T06:02:01.843Z,2.20
2023-02-20T06:05:06.590Z,1.80
2023-02-20T06:08:09.945Z,2.10
2023-02-20T06:11:13.980Z,2.03
2023-02-20T06:14:18.770Z,2.77
2023-02-20T06:17:21.811Z,2.17
2023-02-20T06:20:24.666Z,2.97
2023-02-20T06:23:27.581Z,2.70
2023-02-20T06:26:30.490Z,2.53
2023-02-20T06:29:34.691Z,2.63
2023-02-20T06:32:37.551Z,2.20
2023-02-20T06:35:40.415Z,2.07
2023-02-20T06:38:43.264Z,2.77
2023-02-20T06:41:46.135Z,2.30
2023-02-20T06:44:50.416Z,2.60
2023-02-20T06:47:53.271Z,2.03
2023-02-20T06:50:57.258Z,2.60
2023-02-20T06:54:01.361Z,2.47
2023-02-20T06:57:04.301Z,2.70
2023-02-20T07:00:09.723Z,2.10
2023-02-20T07:03:12.583Z,2.17
2023-02-20T07:06:15.750Z,2.07
2023-02-20T07:09:20.175Z,2.30
2023-02-20T07:12:23.095Z,1.93
2023-02-20T07:15:27.293Z,2.77
2023-02-20T07:18:30.143Z,2.00
2023-02-20T07:21:33.016Z,2.77
2023-02-20T07:24:36.870Z,2.60
2023-02-20T07:27:39.706Z,2.97
2023-02-20T07:30:44.115Z,3.10
2023-02-20T07:33:47.316Z,2.73
2023-02-20T07:36:50.162Z,2.63
2023-02-20T07:39:53.027Z,2.83
2023-02-20T07:42:55.867Z,2.60
2023-02-20T07:46:00.166Z,2.83
2023-02-20T07:49:04.538Z,3.30
2023-02-20T07:52:07.448Z,2.80
2023-02-20T07:55:10.366Z,3.43
2023-02-20T07:58:13.363Z,2.30
2023-02-20T08:01:18.222Z,2.17
2023-02-20T08:04:21.091Z,2.80
2023-02-20T08:07:23.998Z,3.20
2023-02-20T08:10:28.999Z,3.10
2023-02-20T08:13:31.858Z,2.27
2023-02-20T08:16:36.142Z,2.80
2023-02-20T08:19:39.002Z,1.70
2023-02-20T08:22:42.416Z,2.40
2023-02-20T08:25:45.506Z,2.80
2023-02-20T08:28:48.438Z,2.57
2023-02-20T08:31:52.697Z,2.03
2023-02-20T08:34:55.942Z,2.70
2023-02-20T08:37:59.272Z,2.20
2023-02-20T08:41:06.779Z,2.40
2023-02-20T08:44:10.102Z,2.33
2023-02-20T08:47:14.922Z,2.00
2023-02-20T08:50:18.560Z,2.90
2023-02-20T08:53:21.850Z,2.10
2023-02-20T08:56:24.752Z,2.83
2023-02-20T08:59:27.614Z,2.70
2023-02-20T09:02:31.821Z,2.87
2023-02-20T09:05:36.152Z,3.17
2023-02-20T09:08:39.854Z,2.03
2023-02-20T09:11:43.098Z,1.77
2023-02-20T09:14:46.219Z,2.03
2023-02-20T09:17:51.542Z,2.03
2023-02-20T09:20:55.367Z,2.63
2023-02-20T09:23:58.249Z,2.17
2023-02-20T09:27:01.773Z,2.93
2023-02-20T09:30:05.664Z,3.83
2023-02-20T09:33:09.884Z,3.50
2023-02-20T09:36:13.224Z,2.87
2023-02-20T09:39:17.849Z,3.23
2023-02-20T09:42:30.669Z,2.87
2023-02-20T09:45:35.301Z,2.40
2023-02-20T09:48:58.523Z,3.50
2023-02-20T09:52:05.921Z,2.60
2023-02-20T09:55:15.068Z,2.90
2023-02-20T09:58:27.196Z,2.50
2023-02-20T10:01:31.884Z,2.20
2023-02-20T10:04:49.540Z,2.77
2023-02-20T10:07:58.478Z,2.97
2023-02-20T10:11:05.150Z,2.37
2023-02-20T10:14:30.348Z,1.60
2023-02-20T10:17:44.359Z,2.60
2023-02-20T10:20:56.471Z,3.10
2023-02-20T10:24:08.194Z,2.40
2023-02-20T10:27:22.384Z,2.23
2023-02-20T10:30:29.191Z,2.93
2023-02-20T10:33:37.793Z,2.97
2023-02-20T10:36:45.700Z,2.63
2023-02-20T10:39:53.903Z,1.83
2023-02-20T10:43:03.239Z,1.40
2023-02-20T10:46:12.989Z,1.63
2023-02-20T10:49:20.332Z,1.77
2023-02-20T10:52:34.424Z,2.03
2023-02-20T10:55:45.840Z,2.60
2023-02-20T10:58:56.519Z,2.63
2023-02-20T11:02:02.977Z,2.30
2023-02-20T11:05:10.305Z,1.67
2023-02-20T11:08:20.735Z,1.67
2023-02-20T11:11:30.519Z,2.17
2023-02-20T11:14:41.864Z,1.40
2023-02-20T11:17:46.031Z,1.13
2023-02-20T11:20:49.359Z,2.00
2023-02-20T11:23:56.018Z,1.60
2023-02-20T11:27:03.965Z,1.30
2023-02-20T11:30:30.749Z,1.37
2023-02-20T11:33:37.261Z,1.40
2023-02-20T11:36:45.267Z,1.10
2023-02-20T11:39:50.506Z,1.43
2023-02-20T11:42:54.406Z,1.40
2023-02-20T11:46:09.652Z,1.30
2023-02-20T11:49:23.262Z,1.53
2023-02-20T11:52:26.100Z,1.40
2023-02-20T11:55:30.569Z,1.50
2023-02-20T11:58:34.106Z,1.07
2023-02-20T12:01:38.157Z,0.90
2023-02-20T12:04:41.023Z,1.10
2023-02-20T12:07:45.765Z,1.00
2023-02-20T12:10:51.319Z,1.10
2023-02-20T12:13:55.347Z,1.00
2023-02-20T12:17:09.253Z,1.30
2023-02-20T12:20:18.855Z,1.00
2023-02-20T12:23:28.451Z,1.57
2023-02-20T12:26:44.937Z,2.00
2023-02-20T12:29:56.488Z,1.73
2023-02-20T12:33:11.703Z,1.13
2023-02-20T12:36:28.008Z,1.00
2023-02-20T12:39:41.089Z,1.33
2023-02-20T12:42:50.526Z,1.20
2023-02-20T12:46:00.739Z,0.90
2023-02-20T12:49:18.883Z,1.10
2023-02-20T12:52:37.534Z,1.53
2023-02-20T12:55:52.187Z,0.90
2023-02-20T12:59:01.780Z,0.90
2023-02-20T13:02:16.922Z,1.30
2023-02-20T13:05:23.232Z,1.30
2023-02-20T13:08:31.022Z,1.10
2023-02-20T13:11:39.284Z,1.07
2023-02-20T13:14:56.499Z,1.40
2023-02-20T13:18:06.539Z,1.30
2023-02-20T13:21:12.875Z,1.30
2023-02-20T13:24:30.669Z,0.90
2023-02-20T13:27:33.784Z,1.43
2023-02-20T13:30:38.056Z,1.10
2023-02-20T13:33:42.312Z,1.10
2023-02-20T13:36:46.119Z,0.83
2023-02-20T13:39:49.016Z,1.13
2023-02-20T13:43:25.772Z,1.20
2023-02-20T13:46:32.419Z,1.20
2023-02-20T13:49:58.944Z,1.00
2023-02-20T13:53:06.119Z,1.07
2023-02-20T13:56:16.812Z,1.00
2023-02-20T13:59:21.637Z,0.80
2023-02-20T14:02:30.307Z,1.03
2023-02-20T14:05:33.951Z,1.00
2023-02-20T14:08:37.604Z,0.98
2023-02-20T14:11:41.452Z,1.00
2023-02-20T14:14:46.780Z,0.77
2023-02-20T14:17:52.227Z,0.55
2023-02-20T14:21:00.312Z,0.97
2023-02-20T14:24:18.158Z,0.50
2023-02-20T14:27:29.072Z,0.57
2023-02-20T14:30:33.970Z,0.50
2023-02-20T14:33:38.291Z,0.50
2023-02-20T14:36:48.855Z,0.57
2023-02-20T14:39:58.859Z,0.50
2023-02-20T14:43:03.653Z,0.60
2023-02-20T14:46:09.158Z,0.47
2023-02-20T14:49:15.799Z,0.70
2023-02-20T14:52:22.669Z,0.60
2023-02-20T14:55:27.084Z,0.50
2023-02-20T14:58:38.607Z,0.90
2023-02-20T15:01:42.020Z,0.87
2023-02-20T15:04:50.284Z,0.70
2023-02-20T15:07:53.178Z,0.50
2023-02-20T15:10:57.665Z,0.63
2023-02-20T15:14:01.490Z,0.60
2023-02-20T15:17:08.990Z,0.90
2023-02-20T15:20:20.901Z,1.00
2023-02-20T15:23:28.780Z,1.10
2023-02-20T15:26:34.344Z,0.60
2023-02-20T15:29:37.251Z,1.05
2023-02-20T15:32:42.656Z,0.80
2023-02-20T15:35:46.878Z,0.68
2023-02-20T15:38:53.136Z,0.88
2023-02-20T15:41:57.973Z,1.00
2023-02-20T15:45:01.859Z,0.82
2023-02-20T15:48:04.880Z,0.57
2023-02-20T15:51:09.338Z,0.52
2023-02-20T15:54:17.501Z,0.40
2023-02-20T15:57:20.421Z,0.75
2023-02-20T16:00:26.807Z,0.60
2023-02-20T16:03:41.884Z,1.33
2023-02-20T16:06:55.096Z,1.23
2023-02-20T16:09:57.931Z,0.90
2023-02-20T16:13:02.875Z,1.10
2023-02-20T16:16:23.261Z,1.10
2023-02-20T16:19:41.759Z,1.10
2023-02-20T16:22:46.821Z,1.60
2023-02-20T16:25:51.295Z,1.00
2023-02-20T16:28:58.989Z,2.17
2023-02-20T16:32:24.834Z,2.10
2023-02-20T16:35:27.732Z,0.90
2023-02-20T16:38:31.948Z,1.00
2023-02-20T16:41:35.678Z,1.27
2023-02-20T16:44:43.039Z,0.77
2023-02-20T16:47:49.761Z,0.90
2023-02-20T16:50:54.065Z,1.17
2023-02-20T16:53:58.311Z,1.30
2023-02-20T16:57:01.235Z,1.03
2023-02-20T17:00:06.085Z,1.20
2023-02-20T17:03:10.445Z,1.10
2023-02-20T17:06:17.893Z,1.13
2023-02-20T17:09:24.624Z,1.63
2023-02-20T17:12:31.052Z,1.33
2023-02-20T17:15:35.234Z,2.03
2023-02-20T17:18:39.507Z,2.20
2023-02-20T17:21:42.346Z,1.60
2023-02-20T17:24:47.034Z,0.90
2023-02-20T17:27:50.304Z,1.63
2023-02-20T17:30:54.491Z,1.70
2023-02-20T17:33:57.383Z,1.60
2023-02-20T17:37:00.334Z,2.20
2023-02-20T17:40:05.539Z,2.17
2023-02-20T17:43:08.560Z,2.70
2023-02-20T17:46:11.528Z,2.40
2023-02-20T17:49:16.114Z,2.70
2023-02-20T17:52:19.911Z,4.73
2023-02-20T17:55:26.246Z,3.67
2023-02-20T17:58:29.113Z,4.53
2023-02-20T18:01:31.979Z,5.63
2023-02-20T18:04:34.901Z,6.37
2023-02-20T18:07:38.028Z,5.93
2023-02-20T18:10:42.219Z,6.67
2023-02-20T18:13:45.601Z,6.83
2023-02-20T18:16:48.742Z,7.77
2023-02-20T18:19:51.659Z,8.50
2023-02-20T18:22:54.526Z,9.57
2023-02-20T18:25:58.737Z,10.43
2023-02-20T18:29:01.596Z,10.83
2023-02-20T18:32:04.613Z,8.77
2023-02-20T18:35:08.519Z,10.50
2023-02-20T18:38:11.532Z,10.27
2023-02-20T18:41:15.934Z,11.53
2023-02-20T18:44:19.790Z,10.83
2023-02-20T18:47:22.796Z,9.70
2023-02-20T18:50:25.734Z,6.33
2023-02-20T18:53:28.898Z,6.23
2023-02-20T18:56:33.427Z,5.07
2023-02-20T18:59:41.676Z,4.13
2023-02-20T19:02:44.694Z,3.87
2023-02-20T19:05:48.731Z,3.90
2023-02-20T19:08:51.626Z,2.87
2023-02-20T19:11:57.402Z,3.30
2023-02-20T19:15:00.341Z,4.17
2023-02-20T19:18:03.222Z,2.47
2023-02-20T19:21:08.230Z,2.20
2023-02-20T19:24:12.453Z,2.00
2023-02-20T19:27:16.650Z,3.07
2023-02-20T19:30:20.916Z,2.90
2023-02-20T19:33:23.950Z,3.13
2023-02-20T19:36:26.996Z,5.50
2023-02-20T19:39:29.947Z,6.47
2023-02-20T19:42:34.143Z,5.50
2023-02-20T19:45:37.128Z,3.80
2023-02-20T19:48:39.978Z,2.47
2023-02-20T19:51:47.920Z,2.30
2023-02-20T19:54:50.792Z,2.57
2023-02-20T19:57:55.107Z,2.03
2023-02-20T20:00:58.044Z,2.63
2023-02-20T20:04:00.937Z,2.70
2023-02-20T20:07:03.998Z,2.10
2023-02-20T20:10:08.281Z,2.03
2023-02-20T20:13:12.549Z,2.83
2023-02-20T20:16:15.621Z,2.33
2023-02-20T20:19:19.658Z,3.03
2023-02-20T20:22:22.599Z,2.60
2023-02-20T20:25:25.869Z,3.97
2023-02-20T20:28:30.077Z,2.93
2023-02-20T20:31:36.199Z,2.10
2023-02-20T20:34:40.688Z,2.00
2023-02-20T20:37:43.563Z,2.13
2023-02-20T20:40:46.566Z,2.93
2023-02-20T20:43:51.298Z,3.03
2023-02-20T20:46:54.239Z,2.33
2023-02-20T20:49:57.668Z,1.30
2023-02-20T20:53:01.583Z,1.53
2023-02-20T20:56:06.996Z,1.40
2023-02-20T20:59:11.401Z,1.57
2023-02-20T21:02:14.327Z,1.40
2023-02-20T21:05:17.681Z,1.13
2023-02-20T21:08:20.583Z,1.40
2023-02-20T21:11:23.609Z,2.03
2023-02-20T21:14:29.685Z,2.20
2023-02-20T21:17:34.464Z,1.73
2023-02-20T21:20:37.333Z,1.97
2023-02-20T21:23:45.011Z,2.17
2023-02-20T21:26:47.889Z,2.50
2023-02-20T21:29:52.376Z,1.67
2023-02-20T21:32:55.792Z,1.60
2023-02-20T21:36:00.256Z,2.00
2023-02-20T21:39:03.206Z,1.87
2023-02-20T21:42:23.663Z,2.83
2023-02-20T21:45:27.842Z,2.67
2023-02-20T21:48:30.691Z,4.17
2023-02-20T21:51:33.602Z,3.80
2023-02-20T21:54:36.512Z,4.03
2023-02-20T21:57:39.411Z,4.30
2023-02-20T22:00:44.622Z,5.00
2023-02-20T22:03:46.560Z,5.30
2023-02-20T22:07:07.855Z,5.47
2023-02-20T22:10:29.121Z,3.13
2023-02-20T22:13:49.595Z,1.70
2023-02-20T22:17:11.552Z,1.83
2023-02-20T22:20:32.316Z,1.60
2023-02-20T22:23:52.478Z,1.53
2023-02-20T22:27:12.768Z,1.53
2023-02-20T22:30:33.546Z,1.53
2023-02-20T22:33:55.315Z,1.13
2023-02-20T22:37:15.665Z,1.70
2023-02-20T22:40:36.170Z,1.70
2023-02-20T22:43:56.373Z,1.93
2023-02-20T22:47:16.836Z,1.50
2023-02-20T22:50:38.859Z,1.93
2023-02-20T22:53:59.097Z,1.70
2023-02-20T22:57:19.334Z,1.47
2023-02-20T23:00:39.596Z,1.40
2023-02-20T23:04:00.317Z,1.30
2023-02-20T23:07:21.971Z,3.50
2023-02-20T23:10:42.611Z,1.63
2023-02-20T23:14:04.901Z,1.80
2023-02-20T23:17:35.810Z,1.57
2023-02-20T23:20:57.583Z,2.37
2023-02-20T23:24:19.231Z,1.50
2023-02-20T23:27:39.449Z,1.93
2023-02-20T23:31:00.015Z,1.27
2023-02-20T23:34:20.926Z,2.10
2023-02-20T23:37:41.408Z,1.20
2023-02-20T23:41:03.436Z,1.33
2023-02-20T23:44:25.268Z,1.57
2023-02-20T23:47:45.622Z,2.17
2023-02-20T23:51:05.702Z,1.93
2023-02-20T23:54:26.500Z,1.03
2023-02-20T23:57:48.436Z,1.50
